aviador You're here:

LFMP Decoded Metar

Perpignan in FRANCE
Report Time2018-06-18 05:30:00
UTC Time2018-06-18 05:40:47
Flight Rules vfr VFR
Wind320° at 21 Gusting to 33 kt
W.Decomp.*RWY 33: 20.7 kt HW 3.6 kt LCW
RWY 31: 20.7 kt HW 3.6 kt RCW
W.Rank320° ranks 2
Current wind is above 320° avg. (13.5)
Visibility9000 m
Phenomena:N/A
Clouds:N/A
Expected CloudBase > 3,200 ft AGL from Temp-Dew spread
CeilingNone
Temp19°C (ISA +4)
Dew Point11°C (60% RH)
AAT11.8°C
QNH1020 hPa
Density Alt604 ft
Elevation157 ft
Report Wrong Elevation
Raw Report
METAR LFMP 180530Z AUTO 32021G33KT 9000 NSC 19/11 Q1020 NOSIG=

Extra information for LFMP:More info

Metar Taf Metar & Taf Last 4 Metars F.Rules Stats Wind Profile Meteogram Temp Stats Airport Information Weather charts Add Link Nearby VenuesMetar ALERT Operation Metar Decoded Social comments